Time;durP1;ratioP1;P1;durP2;ratioP2;P2;SDS_P1;SDS_P2;PMS_P1;PMS_P2;Temp;Humidity;BMP_temperature;BMP_pressure;BME280_temperature;BME280_humidity;BME280_pressure;Samples;Min_cycle;Max_cycle;Signal;HPM_P1;HPM_P2
2023/07/24 00:00:13;;;;;;;;;;;27.60;48.10;;;;;;5045288;28;82070;-55
2023/07/24 00:02:38;;;;;;;;;;;27.60;48.00;;;;;;5044574;28;82004;-55
2023/07/24 00:05:04;;;;;;;;;;;27.60;48.10;;;;;;5046211;28;81647;-55
2023/07/24 00:07:29;;;;;;;;;;;27.50;48.10;;;;;;5045554;28;83152;-57
2023/07/24 00:09:55;;;;;;;;;;;27.60;48.20;;;;;;5045305;28;82687;-58
2023/07/24 00:12:20;;;;;;;;;;;27.60;48.10;;;;;;5045856;28;83676;-56
2023/07/24 00:14:46;;;;;;;;;;;27.50;48.10;;;;;;5041182;28;82004;-57
2023/07/24 00:17:11;;;;;;;;;;;27.50;48.10;;;;;;5044467;28;82535;-56
2023/07/24 00:19:37;;;;;;;;;;;27.40;48.20;;;;;;5042575;28;84569;-56
2023/07/24 00:22:02;;;;;;;;;;;27.40;48.10;;;;;;5045121;28;82037;-55
2023/07/24 00:24:29;;;;;;;;;;;27.40;48.10;;;;;;5045246;28;82310;-57
2023/07/24 00:26:55;;;;;;;;;;;27.40;48.00;;;;;;5044693;28;83167;-58
2023/07/24 00:29:20;;;;;;;;;;;27.40;48.10;;;;;;5045548;28;81338;-57
2023/07/24 00:31:46;;;;;;;;;;;27.40;48.20;;;;;;5044352;28;81959;-55
2023/07/24 00:34:11;;;;;;;;;;;27.30;48.10;;;;;;5045819;28;84790;-57
2023/07/24 00:36:37;;;;;;;;;;;27.30;48.30;;;;;;5044130;28;82974;-54
2023/07/24 00:39:02;;;;;;;;;;;27.30;48.10;;;;;;5044338;28;82222;-56
2023/07/24 00:41:28;;;;;;;;;;;27.30;48.10;;;;;;5046256;28;82159;-58
2023/07/24 00:43:53;;;;;;;;;;;27.30;48.10;;;;;;5048106;28;82515;-55
2023/07/24 00:46:19;;;;;;;;;;;27.30;48.20;;;;;;5047432;28;82169;-56
2023/07/24 00:48:44;;;;;;;;;;;27.30;48.20;;;;;;5046935;28;82145;-57
2023/07/24 00:51:10;;;;;;;;;;;27.20;48.20;;;;;;5048352;28;82317;-54
2023/07/24 00:53:35;;;;;;;;;;;27.20;48.20;;;;;;5051281;28;82168;-54
2023/07/24 00:56:01;;;;;;;;;;;27.20;48.20;;;;;;5048353;28;82256;-57
2023/07/24 00:58:27;;;;;;;;;;;27.20;48.20;;;;;;5047927;28;82863;-57
2023/07/24 01:00:53;;;;;;;;;;;27.20;48.20;;;;;;5047316;28;83002;-53
2023/07/24 01:03:19;;;;;;;;;;;27.20;48.20;;;;;;5047466;28;83296;-56
2023/07/24 01:05:44;;;;;;;;;;;27.20;48.20;;;;;;5047763;28;82792;-58
2023/07/24 01:08:09;;;;;;;;;;;27.10;48.10;;;;;;5048230;28;82015;-56
2023/07/24 01:10:35;;;;;;;;;;;27.10;48.10;;;;;;5046608;28;85625;-54
2023/07/24 01:13:01;;;;;;;;;;;27.10;48.10;;;;;;5047847;28;83011;-58
2023/07/24 01:15:29;;;;;;;;;;;27.10;48.20;;;;;;5050454;28;82022;-56
2023/07/24 01:18:03;;;;;;;;;;;27.10;48.10;;;;;;5046253;28;82117;-57
2023/07/24 01:20:30;;;;;;;;;;;27.10;48.10;;;;;;5047009;28;81870;-58
2023/07/24 01:23:05;;;;;;;;;;;27.00;48.10;;;;;;5047745;28;82358;-58
2023/07/24 01:25:38;;;;;;;;;;;27.00;48.10;;;;;;5046842;28;83900;-53
2023/07/24 01:28:07;;;;;;;;;;;27.00;48.10;;;;;;5043813;28;82130;-55
2023/07/24 01:30:32;;;;;;;;;;;26.90;48.00;;;;;;5043676;28;82968;-55
2023/07/24 01:32:58;;;;;;;;;;;27.00;48.10;;;;;;5044242;28;84847;-56
2023/07/24 01:35:24;;;;;;;;;;;26.90;48.00;;;;;;5047638;28;82060;-58
2023/07/24 01:37:50;;;;;;;;;;;26.90;48.10;;;;;;5049918;28;82895;-53
2023/07/24 01:40:15;;;;;;;;;;;26.90;48.10;;;;;;5045222;28;81953;-53
2023/07/24 01:42:41;;;;;;;;;;;26.80;48.20;;;;;;5046724;28;82703;-51
2023/07/24 01:45:07;;;;;;;;;;;26.80;48.10;;;;;;5047208;28;82064;-56
2023/07/24 01:47:32;;;;;;;;;;;26.80;48.00;;;;;;5046846;28;82080;-54
2023/07/24 01:49:58;;;;;;;;;;;26.80;48.00;;;;;;5047249;28;83040;-56
2023/07/24 01:52:23;;;;;;;;;;;26.80;48.10;;;;;;5037418;28;82339;-56
2023/07/24 01:54:50;;;;;;;;;;;26.80;48.20;;;;;;5047608;28;81862;-51
2023/07/24 01:57:15;;;;;;;;;;;26.80;48.10;;;;;;5043324;28;84145;-54
2023/07/24 01:59:40;;;;;;;;;;;26.80;48.20;;;;;;5049795;28;83691;-57
2023/07/24 02:02:06;;;;;;;;;;;26.70;48.00;;;;;;5047525;28;82030;-55
2023/07/24 02:04:31;;;;;;;;;;;26.70;48.20;;;;;;5044994;28;86127;-58
2023/07/24 02:06:57;;;;;;;;;;;26.70;48.10;;;;;;5047983;28;81335;-58
2023/07/24 02:09:22;;;;;;;;;;;26.60;48.10;;;;;;5047283;28;82417;-54
2023/07/24 02:11:48;;;;;;;;;;;26.70;48.20;;;;;;5047242;28;83215;-54
2023/07/24 02:14:16;;;;;;;;;;;26.60;48.10;;;;;;5046447;27;82984;-56
2023/07/24 02:16:42;;;;;;;;;;;26.60;48.20;;;;;;5047246;28;83317;-58
2023/07/24 02:19:08;;;;;;;;;;;26.60;48.10;;;;;;5045450;27;82833;-54
2023/07/24 02:21:33;;;;;;;;;;;26.60;48.20;;;;;;5049972;28;81978;-57
2023/07/24 02:23:59;;;;;;;;;;;26.60;48.80;;;;;;5042812;28;82785;-56
2023/07/24 02:26:24;;;;;;;;;;;26.50;48.10;;;;;;5047207;28;82717;-58
2023/07/24 02:28:50;;;;;;;;;;;26.50;48.20;;;;;;5047135;28;82271;-55
2023/07/24 02:31:16;;;;;;;;;;;26.50;48.20;;;;;;5047173;28;83012;-57
2023/07/24 02:33:41;;;;;;;;;;;26.50;48.20;;;;;;5045383;27;82089;-56
2023/07/24 02:36:06;;;;;;;;;;;26.50;48.10;;;;;;5047112;28;82865;-53
2023/07/24 02:38:32;;;;;;;;;;;26.50;48.30;;;;;;5044206;28;87173;-56
2023/07/24 02:40:57;;;;;;;;;;;26.40;48.20;;;;;;5046724;28;82056;-55
2023/07/24 02:43:23;;;;;;;;;;;26.40;48.20;;;;;;5049451;28;82564;-56
2023/07/24 02:45:48;;;;;;;;;;;26.40;48.20;;;;;;5046474;28;82106;-53
2023/07/24 02:48:14;;;;;;;;;;;26.40;48.20;;;;;;5046102;28;82425;-54
2023/07/24 02:50:39;;;;;;;;;;;26.40;48.20;;;;;;5046670;28;83212;-56
2023/07/24 02:53:05;;;;;;;;;;;26.30;48.10;;;;;;5046557;27;81895;-54
2023/07/24 02:55:31;;;;;;;;;;;26.30;48.10;;;;;;5047053;28;82486;-57
2023/07/24 02:57:56;;;;;;;;;;;26.30;48.20;;;;;;5046300;28;84358;-58
2023/07/24 03:00:22;;;;;;;;;;;26.30;48.30;;;;;;5046630;28;82078;-56
2023/07/24 03:02:47;;;;;;;;;;;26.30;48.20;;;;;;5047368;27;82962;-55
2023/07/24 03:05:13;;;;;;;;;;;26.20;48.10;;;;;;5045684;28;82169;-58
2023/07/24 03:07:38;;;;;;;;;;;26.20;48.10;;;;;;5046582;28;82449;-59
2023/07/24 03:10:04;;;;;;;;;;;26.20;48.20;;;;;;5045721;27;83535;-58
2023/07/24 03:12:29;;;;;;;;;;;26.20;48.30;;;;;;5046173;28;82150;-55
2023/07/24 03:14:55;;;;;;;;;;;26.20;48.20;;;;;;5046211;28;82559;-55
2023/07/24 03:17:22;;;;;;;;;;;26.10;48.20;;;;;;5046173;28;82549;-58
2023/07/24 03:19:48;;;;;;;;;;;26.10;48.30;;;;;;5045229;28;81664;-56
2023/07/24 03:22:13;;;;;;;;;;;26.10;48.20;;;;;;5046458;28;82163;-54
2023/07/24 03:24:39;;;;;;;;;;;26.10;48.20;;;;;;5048285;28;84750;-53
2023/07/24 03:27:04;;;;;;;;;;;26.10;48.20;;;;;;5045761;28;82659;-56
2023/07/24 03:29:30;;;;;;;;;;;26.10;48.20;;;;;;5045810;28;82982;-55
2023/07/24 03:31:55;;;;;;;;;;;26.10;48.20;;;;;;5046034;28;82079;-52
2023/07/24 03:34:21;;;;;;;;;;;26.00;48.20;;;;;;5045371;28;82637;-57
2023/07/24 03:36:46;;;;;;;;;;;26.00;48.20;;;;;;5045995;28;82131;-55
2023/07/24 03:39:12;;;;;;;;;;;26.00;48.20;;;;;;5046144;28;82163;-52
2023/07/24 03:41:38;;;;;;;;;;;26.00;48.20;;;;;;5045919;28;81869;-54
2023/07/24 03:44:04;;;;;;;;;;;26.00;48.20;;;;;;5046345;28;82226;-56
2023/07/24 03:46:29;;;;;;;;;;;26.00;48.10;;;;;;5048528;28;82163;-51
2023/07/24 03:48:55;;;;;;;;;;;26.00;48.30;;;;;;5044759;28;84227;-58
2023/07/24 03:51:20;;;;;;;;;;;25.90;48.20;;;;;;5044817;28;83918;-54
2023/07/24 03:53:46;;;;;;;;;;;25.90;48.10;;;;;;5045545;28;84071;-55
2023/07/24 03:56:11;;;;;;;;;;;25.90;48.90;;;;;;5045668;28;83106;-53
2023/07/24 03:58:38;;;;;;;;;;;25.90;48.30;;;;;;5045711;28;82145;-53
2023/07/24 04:01:04;;;;;;;;;;;25.90;48.30;;;;;;5045569;28;81933;-50
2023/07/24 04:03:29;;;;;;;;;;;25.80;48.30;;;;;;5045036;28;83386;-54
2023/07/24 04:05:55;;;;;;;;;;;25.80;48.30;;;;;;5045610;28;82236;-59
2023/07/24 04:08:20;;;;;;;;;;;25.80;48.30;;;;;;5048617;28;82217;-53
2023/07/24 04:10:46;;;;;;;;;;;25.80;48.40;;;;;;5045607;28;82109;-58
2023/07/24 04:13:11;;;;;;;;;;;25.80;48.30;;;;;;5045521;28;82031;-55
2023/07/24 04:15:38;;;;;;;;;;;25.70;48.30;;;;;;5044475;28;84126;-59
2023/07/24 04:18:03;;;;;;;;;;;25.70;48.20;;;;;;5045330;28;82166;-54
2023/07/24 04:20:29;;;;;;;;;;;25.70;48.20;;;;;;5043460;28;82133;-56
2023/07/24 04:22:54;;;;;;;;;;;25.70;48.40;;;;;;5045207;28;82936;-55
2023/07/24 04:25:20;;;;;;;;;;;25.70;48.30;;;;;;5045326;28;82033;-54
2023/07/24 04:27:45;;;;;;;;;;;25.70;48.40;;;;;;5041355;28;83924;-55
2023/07/24 04:30:11;;;;;;;;;;;25.70;48.40;;;;;;5047942;28;83153;-57
2023/07/24 04:32:36;;;;;;;;;;;25.60;48.30;;;;;;5045943;28;82309;-52
2023/07/24 04:35:02;;;;;;;;;;;25.60;48.40;;;;;;5044580;28;82138;-54
2023/07/24 04:37:27;;;;;;;;;;;25.60;48.40;;;;;;5044948;28;81946;-55
2023/07/24 04:39:53;;;;;;;;;;;25.60;48.50;;;;;;5044305;28;82921;-54
2023/07/24 04:42:18;;;;;;;;;;;25.60;48.40;;;;;;5045487;28;82630;-56
2023/07/24 04:44:44;;;;;;;;;;;25.60;48.40;;;;;;5045298;28;82094;-58
2023/07/24 04:47:09;;;;;;;;;;;25.50;48.40;;;;;;5045072;28;82309;-58
2023/07/24 04:49:35;;;;;;;;;;;25.50;48.40;;;;;;5043049;28;83240;-54
2023/07/24 04:52:00;;;;;;;;;;;25.50;48.50;;;;;;5047649;28;81981;-54
2023/07/24 04:54:26;;;;;;;;;;;25.50;48.60;;;;;;5044858;28;83029;-56
2023/07/24 04:56:51;;;;;;;;;;;25.50;48.50;;;;;;5045523;28;81864;-56
2023/07/24 04:59:17;;;;;;;;;;;25.50;48.50;;;;;;5045099;28;82041;-54
2023/07/24 05:01:42;;;;;;;;;;;25.50;48.50;;;;;;5044643;28;82152;-55
2023/07/24 05:04:08;;;;;;;;;;;25.50;48.50;;;;;;5042579;28;82986;-56
2023/07/24 05:06:35;;;;;;;;;;;25.50;48.60;;;;;;5044365;28;83604;-55
2023/07/24 05:09:01;;;;;;;;;;;25.50;48.60;;;;;;5044465;28;84543;-51
2023/07/24 05:11:26;;;;;;;;;;;25.40;48.60;;;;;;5047528;28;82437;-58
2023/07/24 05:13:52;;;;;;;;;;;25.40;48.60;;;;;;5044620;28;83040;-55
2023/07/24 05:16:17;;;;;;;;;;;25.40;48.70;;;;;;5044830;28;82031;-58
2023/07/24 05:18:43;;;;;;;;;;;25.40;48.70;;;;;;5044176;28;82185;-58
2023/07/24 05:21:08;;;;;;;;;;;25.40;48.80;;;;;;5043931;28;82257;-58
2023/07/24 05:23:34;;;;;;;;;;;25.40;48.80;;;;;;5044510;28;82551;-54
2023/07/24 05:26:00;;;;;;;;;;;25.40;48.80;;;;;;5044328;27;82195;-55
2023/07/24 05:28:26;;;;;;;;;;;25.40;48.90;;;;;;5046778;28;84770;-55
2023/07/24 05:30:51;;;;;;;;;;;25.40;48.90;;;;;;5048203;28;82061;-56
2023/07/24 05:33:17;;;;;;;;;;;25.40;48.90;;;;;;5050898;28;82895;-53
2023/07/24 05:35:43;;;;;;;;;;;25.40;48.90;;;;;;5047381;28;82182;-56
2023/07/24 05:38:08;;;;;;;;;;;25.30;48.90;;;;;;5047706;28;84118;-56
2023/07/24 05:40:34;;;;;;;;;;;25.30;48.40;;;;;;5047462;28;82966;-55
2023/07/24 05:43:00;;;;;;;;;;;25.30;49.00;;;;;;5047753;28;82141;-53
2023/07/24 05:45:26;;;;;;;;;;;25.30;49.00;;;;;;5048220;28;82533;-53
2023/07/24 05:47:51;;;;;;;;;;;25.30;49.20;;;;;;5047748;28;82177;-58
2023/07/24 05:50:17;;;;;;;;;;;25.30;49.20;;;;;;5046884;28;82135;-56
2023/07/24 05:52:42;;;;;;;;;;;25.30;49.20;;;;;;5046916;28;83225;-57
2023/07/24 05:55:08;;;;;;;;;;;25.30;49.20;;;;;;5049809;28;82878;-58
2023/07/24 05:57:33;;;;;;;;;;;25.30;49.20;;;;;;5047634;28;82295;-58
2023/07/24 05:59:59;;;;;;;;;;;25.30;49.20;;;;;;5047515;28;82912;-54
2023/07/24 06:02:24;;;;;;;;;;;25.30;49.30;;;;;;5047890;28;82109;-55
2023/07/24 06:04:50;;;;;;;;;;;25.30;49.30;;;;;;5046833;28;81995;-52
2023/07/24 06:07:15;;;;;;;;;;;25.30;49.40;;;;;;5047207;28;82205;-55
2023/07/24 06:09:41;;;;;;;;;;;25.30;49.40;;;;;;5048100;28;81706;-58
2023/07/24 06:12:07;;;;;;;;;;;25.30;49.50;;;;;;5047264;28;81894;-56
2023/07/24 06:14:32;;;;;;;;;;;25.30;49.50;;;;;;5047263;28;83097;-58
2023/07/24 06:16:58;;;;;;;;;;;25.30;49.50;;;;;;5049415;28;82944;-56
2023/07/24 06:19:23;;;;;;;;;;;25.30;49.50;;;;;;5045811;28;83014;-56
2023/07/24 06:21:49;;;;;;;;;;;25.30;49.50;;;;;;5046772;28;81989;-52
2023/07/24 06:24:14;;;;;;;;;;;25.30;49.60;;;;;;5047089;28;82537;-56
2023/07/24 06:26:40;;;;;;;;;;;25.30;49.60;;;;;;5046518;28;82572;-53
2023/07/24 06:29:05;;;;;;;;;;;25.30;49.50;;;;;;5047436;28;81934;-54
2023/07/24 06:31:31;;;;;;;;;;;25.30;49.50;;;;;;5047024;28;82396;-56
2023/07/24 06:33:56;;;;;;;;;;;25.30;49.50;;;;;;5047612;28;82057;-56
2023/07/24 06:36:22;;;;;;;;;;;25.30;49.60;;;;;;5045264;28;82088;-58
2023/07/24 06:38:47;;;;;;;;;;;25.30;49.60;;;;;;5049438;27;82456;-58
2023/07/24 06:41:15;;;;;;;;;;;25.30;49.70;;;;;;5045235;28;83035;-57
2023/07/24 06:43:41;;;;;;;;;;;25.30;49.70;;;;;;5046161;28;84979;-56
2023/07/24 06:46:06;;;;;;;;;;;25.30;49.60;;;;;;5045935;28;83433;-53
2023/07/24 06:48:32;;;;;;;;;;;25.30;49.70;;;;;;5046086;28;82078;-53
2023/07/24 06:50:57;;;;;;;;;;;25.30;49.70;;;;;;5045390;28;83318;-57
2023/07/24 06:53:23;;;;;;;;;;;25.30;49.70;;;;;;5046275;28;83062;-58
2023/07/24 06:55:48;;;;;;;;;;;25.30;49.70;;;;;;5045820;28;81950;-55
2023/07/24 06:58:14;;;;;;;;;;;25.30;49.80;;;;;;5048937;28;81921;-58
2023/07/24 07:00:39;;;;;;;;;;;25.30;49.80;;;;;;5045991;28;82044;-55
2023/07/24 07:03:05;;;;;;;;;;;25.30;49.80;;;;;;5045975;28;82452;-55
2023/07/24 07:05:33;;;;;;;;;;;25.30;49.80;;;;;;5043664;28;83972;-57
2023/07/24 07:07:59;;;;;;;;;;;25.30;49.80;;;;;;5046236;28;82119;-57
2023/07/24 07:10:24;;;;;;;;;;;25.30;49.90;;;;;;5045583;28;84039;-54
2023/07/24 07:12:50;;;;;;;;;;;25.30;49.90;;;;;;5045179;28;84482;-54
2023/07/24 07:15:15;;;;;;;;;;;25.30;50.00;;;;;;5045775;28;82143;-57
2023/07/24 07:17:41;;;;;;;;;;;25.30;49.90;;;;;;5046104;28;82459;-58
2023/07/24 07:20:07;;;;;;;;;;;25.30;50.00;;;;;;5047397;28;83129;-55
2023/07/24 07:22:32;;;;;;;;;;;25.30;50.00;;;;;;5046683;28;81543;-56
2023/07/24 07:24:58;;;;;;;;;;;25.30;50.00;;;;;;5046352;28;82985;-52
2023/07/24 07:27:23;;;;;;;;;;;25.30;50.00;;;;;;5046534;28;83053;-57
2023/07/24 07:29:49;;;;;;;;;;;25.30;50.00;;;;;;5045772;28;82948;-58
2023/07/24 07:32:14;;;;;;;;;;;25.30;50.00;;;;;;5046414;28;82632;-54
2023/07/24 07:34:40;;;;;;;;;;;25.30;50.00;;;;;;5046428;28;82086;-53
2023/07/24 07:37:05;;;;;;;;;;;25.30;50.00;;;;;;5044712;28;84261;-56
2023/07/24 07:39:31;;;;;;;;;;;25.30;50.20;;;;;;5045227;28;84377;-58
2023/07/24 07:41:56;;;;;;;;;;;25.30;50.10;;;;;;5048262;28;82133;-55
2023/07/24 07:44:22;;;;;;;;;;;25.30;50.10;;;;;;5045833;28;82338;-57
2023/07/24 07:46:47;;;;;;;;;;;25.30;50.20;;;;;;5046382;28;81350;-56
2023/07/24 07:49:13;;;;;;;;;;;25.30;50.30;;;;;;5045717;28;81981;-53
2023/07/24 07:51:38;;;;;;;;;;;25.30;50.20;;;;;;5045128;28;82146;-51
2023/07/24 07:54:04;;;;;;;;;;;25.30;50.20;;;;;;5045357;28;82916;-55
2023/07/24 07:56:29;;;;;;;;;;;25.30;50.30;;;;;;5045658;28;83529;-55
2023/07/24 07:58:55;;;;;;;;;;;25.30;50.30;;;;;;5045291;28;82330;-56
2023/07/24 08:01:20;;;;;;;;;;;25.30;50.30;;;;;;5045879;28;82397;-57
2023/07/24 08:03:46;;;;;;;;;;;25.30;50.30;;;;;;5048516;28;82427;-55
2023/07/24 08:06:12;;;;;;;;;;;25.30;50.30;;;;;;5044837;28;82166;-55
2023/07/24 08:08:38;;;;;;;;;;;25.30;50.40;;;;;;5045642;28;83611;-55
2023/07/24 08:11:04;;;;;;;;;;;25.30;50.40;;;;;;5041038;27;82596;-55
2023/07/24 08:13:30;;;;;;;;;;;25.30;50.30;;;;;;5044973;28;82136;-53
2023/07/24 08:15:55;;;;;;;;;;;25.30;50.40;;;;;;5044964;28;82013;-56
2023/07/24 08:18:21;;;;;;;;;;;25.30;50.40;;;;;;5044601;28;83888;-55
2023/07/24 08:20:46;;;;;;;;;;;25.30;50.40;;;;;;5044285;28;82203;-54
2023/07/24 08:23:12;;;;;;;;;;;25.30;50.40;;;;;;5045776;28;82510;-53
2023/07/24 08:25:37;;;;;;;;;;;25.30;50.40;;;;;;5047990;28;82780;-56
2023/07/24 08:28:04;;;;;;;;;;;25.30;50.40;;;;;;5045664;28;82598;-57
2023/07/24 08:30:30;;;;;;;;;;;25.30;50.40;;;;;;5045013;28;84340;-56
2023/07/24 08:32:56;;;;;;;;;;;25.30;50.40;;;;;;5045563;28;82148;-55
2023/07/24 08:35:22;;;;;;;;;;;25.30;50.40;;;;;;5045668;28;83734;-56
2023/07/24 08:37:47;;;;;;;;;;;25.30;50.30;;;;;;5043876;28;83012;-55
2023/07/24 08:40:15;;;;;;;;;;;25.40;50.40;;;;;;5045042;28;82109;-55
2023/07/24 08:42:42;;;;;;;;;;;25.40;50.40;;;;;;5044767;28;82986;-55
2023/07/24 08:45:12;;;;;;;;;;;25.40;50.50;;;;;;5044891;28;83051;-53
2023/07/24 08:47:38;;;;;;;;;;;25.40;50.40;;;;;;5047622;28;82187;-55
2023/07/24 08:50:03;;;;;;;;;;;25.40;50.40;;;;;;5045097;28;82968;-54
2023/07/24 08:52:30;;;;;;;;;;;25.40;50.40;;;;;;5044153;28;82121;-52
2023/07/24 08:54:57;;;;;;;;;;;25.40;50.60;;;;;;5045105;28;82473;-54
2023/07/24 08:57:23;;;;;;;;;;;25.40;50.50;;;;;;5044944;28;83083;-57
2023/07/24 08:59:49;;;;;;;;;;;25.40;50.50;;;;;;5045633;28;81198;-57
2023/07/24 09:02:14;;;;;;;;;;;25.40;50.50;;;;;;5046049;27;82419;-58
2023/07/24 09:04:40;;;;;;;;;;;25.40;50.50;;;;;;5047949;28;82994;-53
2023/07/24 09:07:07;;;;;;;;;;;25.40;50.40;;;;;;5049536;28;84809;-58
2023/07/24 09:09:32;;;;;;;;;;;25.40;50.40;;;;;;5047752;28;82254;-53
2023/07/24 09:12:01;;;;;;;;;;;25.40;50.50;;;;;;5048514;28;82038;-57
2023/07/24 09:14:28;;;;;;;;;;;25.40;50.40;;;;;;5044332;28;83901;-56
2023/07/24 09:17:02;;;;;;;;;;;25.50;50.40;;;;;;5043618;28;84537;-57
2023/07/24 09:19:28;;;;;;;;;;;25.50;50.40;;;;;;5044250;28;82253;-55
2023/07/24 09:21:53;;;;;;;;;;;25.50;50.50;;;;;;5046611;28;82002;-59
2023/07/24 09:24:19;;;;;;;;;;;25.50;50.40;;;;;;5048401;28;82477;-55
2023/07/24 09:26:48;;;;;;;;;;;25.50;50.40;;;;;;5048231;28;82048;-53
2023/07/24 09:29:13;;;;;;;;;;;25.50;50.40;;;;;;5050721;28;82784;-55
2023/07/24 09:31:39;;;;;;;;;;;25.50;50.40;;;;;;5047672;28;83675;-57
2023/07/24 09:34:13;;;;;;;;;;;25.50;50.40;;;;;;5048393;28;83311;-56
2023/07/24 09:36:38;;;;;;;;;;;25.60;50.40;;;;;;5046222;28;83159;-56
2023/07/24 09:39:06;;;;;;;;;;;25.60;50.40;;;;;;5048094;28;82186;-55
2023/07/24 09:41:31;;;;;;;;;;;25.60;50.30;;;;;;5046458;28;85428;-54
2023/07/24 09:44:00;;;;;;;;;;;25.60;50.40;;;;;;5047676;28;83135;-56
2023/07/24 09:46:26;;;;;;;;;;;25.60;50.40;;;;;;5045756;28;82147;-56
2023/07/24 09:48:51;;;;;;;;;;;25.60;50.30;;;;;;5048280;28;81733;-56
2023/07/24 09:51:17;;;;;;;;;;;25.60;50.30;;;;;;5047372;28;86323;-57
2023/07/24 09:53:48;;;;;;;;;;;25.60;50.30;;;;;;5047916;28;82334;-54
2023/07/24 09:56:14;;;;;;;;;;;25.60;50.40;;;;;;5047061;28;85655;-54
2023/07/24 09:58:40;;;;;;;;;;;25.70;50.40;;;;;;5047085;28;82065;-56
2023/07/24 10:01:07;;;;;;;;;;;25.70;50.40;;;;;;5047849;28;82458;-55
2023/07/24 10:03:38;;;;;;;;;;;25.70;50.40;;;;;;5046690;28;83610;-55
2023/07/24 10:06:04;;;;;;;;;;;25.70;50.40;;;;;;5047461;28;82612;-55
2023/07/24 10:08:30;;;;;;;;;;;25.70;50.40;;;;;;5046686;27;82351;-56
2023/07/24 10:10:55;;;;;;;;;;;25.70;50.40;;;;;;5047242;28;82721;-56
2023/07/24 10:13:21;;;;;;;;;;;25.70;50.50;;;;;;5050484;27;81890;-58
2023/07/24 10:15:48;;;;;;;;;;;25.70;50.50;;;;;;5047087;28;83136;-55
2023/07/24 10:18:15;;;;;;;;;;;25.70;50.50;;;;;;5047566;28;82458;-54
2023/07/24 10:20:41;;;;;;;;;;;25.80;50.60;;;;;;5046512;28;83175;-57
2023/07/24 10:23:07;;;;;;;;;;;25.80;50.60;;;;;;5046277;28;82882;-60
2023/07/24 10:25:34;;;;;;;;;;;25.80;50.50;;;;;;5047152;28;81974;-54
2023/07/24 10:28:07;;;;;;;;;;;25.80;50.50;;;;;;5047175;28;82604;-53
2023/07/24 10:30:33;;;;;;;;;;;25.80;50.60;;;;;;5046650;28;84352;-60
2023/07/24 10:33:06;;;;;;;;;;;25.80;50.60;;;;;;5046858;28;82365;-57
2023/07/24 10:36:01;;;;;;;;;;;25.80;50.60;;;;;;5049266;28;83941;-58
2023/07/24 10:38:37;;;;;;;;;;;25.90;50.70;;;;;;5031649;28;81452;-52
2023/07/24 10:41:03;;;;;;;;;;;25.90;50.70;;;;;;5046803;28;83094;-56
2023/07/24 10:43:29;;;;;;;;;;;25.90;50.70;;;;;;5046686;28;83332;-56
2023/07/24 10:45:55;;;;;;;;;;;25.90;50.70;;;;;;5046058;28;83082;-55
2023/07/24 10:48:22;;;;;;;;;;;26.00;50.70;;;;;;5047072;28;82431;-55
2023/07/24 10:50:51;;;;;;;;;;;26.00;50.70;;;;;;5046747;27;83541;-57
2023/07/24 10:53:17;;;;;;;;;;;26.00;50.70;;;;;;5044811;28;82063;-52
2023/07/24 10:55:44;;;;;;;;;;;26.00;50.70;;;;;;5046220;28;82039;-54
2023/07/24 10:58:09;;;;;;;;;;;26.00;50.70;;;;;;5049286;28;84295;-56
2023/07/24 11:00:35;;;;;;;;;;;26.10;50.70;;;;;;5045934;28;84065;-56
2023/07/24 11:03:01;;;;;;;;;;;26.10;50.80;;;;;;5046857;28;82494;-56
2023/07/24 11:05:27;;;;;;;;;;;26.10;50.70;;;;;;5046595;28;82150;-57
2023/07/24 11:07:52;;;;;;;;;;;26.10;50.70;;;;;;5044258;28;83809;-57
2023/07/24 11:10:19;;;;;;;;;;;26.10;50.80;;;;;;5045399;28;83781;-57
2023/07/24 11:12:44;;;;;;;;;;;26.10;50.90;;;;;;5044903;28;82183;-55
2023/07/24 11:15:10;;;;;;;;;;;26.10;50.90;;;;;;5046083;28;82896;-57
2023/07/24 11:17:37;;;;;;;;;;;26.20;50.80;;;;;;5049225;28;82162;-55
2023/07/24 11:20:06;;;;;;;;;;;26.20;50.80;;;;;;5045733;28;82371;-57
2023/07/24 11:22:32;;;;;;;;;;;26.20;50.80;;;;;;5044463;28;84742;-57
2023/07/24 11:24:58;;;;;;;;;;;26.30;50.90;;;;;;5045583;27;82020;-55
2023/07/24 11:27:24;;;;;;;;;;;26.30;50.90;;;;;;5046941;28;81955;-57
2023/07/24 11:29:50;;;;;;;;;;;26.30;50.90;;;;;;5045928;28;82918;-59
2023/07/24 11:32:22;;;;;;;;;;;26.30;50.80;;;;;;5046347;28;82107;-59
2023/07/24 11:34:48;;;;;;;;;;;26.40;50.90;;;;;;5045209;28;83989;-58
2023/07/24 11:37:14;;;;;;;;;;;26.40;50.80;;;;;;5044020;28;83367;-57
2023/07/24 11:39:40;;;;;;;;;;;26.40;50.90;;;;;;5048962;28;82592;-55
2023/07/24 11:42:05;;;;;;;;;;;26.30;50.90;;;;;;5045715;28;82851;-57
2023/07/24 11:44:31;;;;;;;;;;;26.40;51.00;;;;;;5045958;28;82031;-56
2023/07/24 11:47:06;;;;;;;;;;;26.40;50.90;;;;;;5045996;28;82391;-56
2023/07/24 11:49:32;;;;;;;;;;;26.50;50.90;;;;;;5042529;28;84263;-55
2023/07/24 11:52:04;;;;;;;;;;;26.40;50.90;;;;;;5046592;28;81227;-54
2023/07/24 11:54:30;;;;;;;;;;;26.50;51.00;;;;;;5044639;28;83097;-55
2023/07/24 11:56:56;;;;;;;;;;;26.50;50.90;;;;;;5045283;28;84672;-57
2023/07/24 11:59:21;;;;;;;;;;;26.50;50.90;;;;;;5045367;28;83052;-58
2023/07/24 12:01:50;;;;;;;;;;;26.50;50.90;;;;;;5048345;28;83469;-55
2023/07/24 12:04:16;;;;;;;;;;;26.60;51.00;;;;;;5042174;28;82423;-57
2023/07/24 12:06:42;;;;;;;;;;;26.60;51.00;;;;;;5045419;28;83184;-57
2023/07/24 12:09:08;;;;;;;;;;;26.60;51.00;;;;;;5044637;28;84211;-57
2023/07/24 12:11:33;;;;;;;;;;;26.60;50.90;;;;;;5045718;28;82108;-54
2023/07/24 12:13:59;;;;;;;;;;;26.60;51.00;;;;;;5045827;28;82400;-58
2023/07/24 12:16:24;;;;;;;;;;;26.60;51.00;;;;;;5046097;28;82124;-59
2023/07/24 12:18:50;;;;;;;;;;;26.70;51.00;;;;;;5045615;28;82074;-57
2023/07/24 12:21:16;;;;;;;;;;;26.70;51.00;;;;;;5045524;28;83764;-58
2023/07/24 12:23:41;;;;;;;;;;;26.70;51.00;;;;;;5046905;28;84292;-57
2023/07/24 12:26:07;;;;;;;;;;;26.70;51.00;;;;;;5045520;28;83545;-56
2023/07/24 12:28:32;;;;;;;;;;;26.80;51.10;;;;;;5045415;28;82834;-57
2023/07/24 12:30:58;;;;;;;;;;;26.80;51.10;;;;;;5041331;28;82075;-56
2023/07/24 12:33:23;;;;;;;;;;;26.80;51.00;;;;;;5045132;28;82931;-56
2023/07/24 12:35:52;;;;;;;;;;;26.80;51.00;;;;;;5045408;28;83104;-57
2023/07/24 12:38:18;;;;;;;;;;;26.80;51.00;;;;;;5047424;28;82010;-56
2023/07/24 12:40:44;;;;;;;;;;;26.90;51.10;;;;;;5049158;28;82509;-60
2023/07/24 12:43:09;;;;;;;;;;;26.90;51.10;;;;;;5047969;28;83274;-54
2023/07/24 12:45:35;;;;;;;;;;;26.90;51.10;;;;;;5051458;28;81953;-54
2023/07/24 12:48:00;;;;;;;;;;;26.90;51.10;;;;;;5047752;28;84507;-56
2023/07/24 12:50:26;;;;;;;;;;;26.90;51.00;;;;;;5048892;28;82065;-57
2023/07/24 12:52:51;;;;;;;;;;;26.90;51.00;;;;;;5048408;28;82416;-57
2023/07/24 12:55:17;;;;;;;;;;;27.00;51.10;;;;;;5048423;28;83600;-58
2023/07/24 12:57:44;;;;;;;;;;;27.00;51.00;;;;;;5048530;27;82235;-55
2023/07/24 13:00:09;;;;;;;;;;;27.00;51.00;;;;;;5048155;28;83850;-59
2023/07/24 13:02:35;;;;;;;;;;;27.00;51.00;;;;;;5048148;28;82952;-57
2023/07/24 13:05:00;;;;;;;;;;;27.00;51.00;;;;;;5048347;28;81284;-56
2023/07/24 13:07:26;;;;;;;;;;;27.10;51.00;;;;;;5050718;28;82070;-58
2023/07/24 13:09:51;;;;;;;;;;;27.10;51.00;;;;;;5047279;28;83011;-58
2023/07/24 13:12:17;;;;;;;;;;;27.10;51.00;;;;;;5046930;28;82876;-57
2023/07/24 13:14:43;;;;;;;;;;;27.20;51.00;;;;;;5047613;28;83454;-54
2023/07/24 13:17:09;;;;;;;;;;;27.20;51.00;;;;;;5048609;28;81688;-56
2023/07/24 13:19:34;;;;;;;;;;;27.20;51.00;;;;;;5047704;28;82443;-55
2023/07/24 13:22:00;;;;;;;;;;;27.30;51.00;;;;;;5048268;28;83104;-59
2023/07/24 13:24:25;;;;;;;;;;;27.30;50.90;;;;;;5047333;28;81984;-57
2023/07/24 13:26:51;;;;;;;;;;;27.30;50.90;;;;;;5050416;28;82541;-57
2023/07/24 13:29:16;;;;;;;;;;;27.30;50.70;;;;;;5048690;28;81374;-57
2023/07/24 13:31:42;;;;;;;;;;;27.40;50.60;;;;;;5048425;28;82079;-56
2023/07/24 13:34:08;;;;;;;;;;;27.40;50.40;;;;;;5047696;28;83151;-59
2023/07/24 13:36:33;;;;;;;;;;;27.40;50.30;;;;;;5047321;28;82995;-56
2023/07/24 13:38:59;;;;;;;;;;;27.40;50.20;;;;;;5047472;28;83380;-57
2023/07/24 13:41:24;;;;;;;;;;;27.50;50.10;;;;;;5047413;28;82260;-60
2023/07/24 13:43:50;;;;;;;;;;;27.50;50.20;;;;;;5047889;28;82020;-56
2023/07/24 13:46:15;;;;;;;;;;;27.50;50.10;;;;;;5047347;28;82502;-59
2023/07/24 13:48:41;;;;;;;;;;;27.50;50.30;;;;;;5049034;27;82788;-54
2023/07/24 13:51:06;;;;;;;;;;;27.60;50.10;;;;;;5048049;28;82308;-60
2023/07/24 13:53:32;;;;;;;;;;;27.60;50.50;;;;;;5045144;28;85206;-54
2023/07/24 13:55:57;;;;;;;;;;;27.60;50.40;;;;;;5047605;28;82052;-55
2023/07/24 13:58:23;;;;;;;;;;;27.60;50.20;;;;;;5048006;28;82671;-57
2023/07/24 14:00:48;;;;;;;;;;;27.70;50.30;;;;;;5046863;28;83585;-56
2023/07/24 14:03:14;;;;;;;;;;;27.70;50.20;;;;;;5047783;28;82088;-55
2023/07/24 14:05:40;;;;;;;;;;;27.80;50.20;;;;;;5047605;28;82107;-57
2023/07/24 14:08:06;;;;;;;;;;;27.80;50.20;;;;;;5047264;28;84488;-57